createdAt,value
2023-02-09T00:01:09.646Z,84.50
2023-02-09T00:03:37.977Z,83.96
2023-02-09T00:06:07.538Z,83.97
2023-02-09T00:08:36.808Z,84.19
2023-02-09T00:11:08.348Z,84.27
2023-02-09T00:13:35.709Z,84.02
2023-02-09T00:16:05.257Z,83.67
2023-02-09T00:18:34.305Z,84.06
2023-02-09T00:21:04.546Z,84.19
2023-02-09T00:23:33.291Z,84.40
2023-02-09T00:26:01.635Z,84.33
2023-02-09T00:28:29.588Z,84.61
2023-02-09T00:30:57.345Z,84.51
2023-02-09T00:33:26.665Z,83.64
2023-02-09T00:35:54.203Z,84.02
2023-02-09T00:38:22.601Z,83.60
2023-02-09T00:40:50.146Z,84.36
2023-02-09T00:43:17.649Z,83.57
2023-02-09T00:45:46.097Z,83.88
2023-02-09T00:48:13.668Z,84.14
2023-02-09T00:50:42.851Z,84.49
2023-02-09T00:53:10.454Z,84.67
2023-02-09T00:55:39.247Z,84.56
2023-02-09T00:58:08.225Z,84.47
2023-02-09T01:00:35.849Z,84.80
2023-02-09T01:03:04.613Z,85.02
2023-02-09T01:05:32.725Z,85.03
2023-02-09T01:08:01.661Z,85.49
2023-02-09T01:10:29.217Z,85.57
2023-02-09T01:12:56.731Z,85.19
2023-02-09T01:15:24.309Z,85.64
2023-02-09T01:17:51.815Z,85.41
2023-02-09T01:20:19.507Z,85.34
2023-02-09T01:22:47.001Z,85.73
2023-02-09T01:25:15.916Z,85.71
2023-02-09T01:27:43.509Z,85.33
2023-02-09T01:30:12.023Z,85.63
2023-02-09T01:32:39.595Z,86.14
2023-02-09T01:35:08.050Z,85.62
2023-02-09T01:37:36.884Z,85.98
2023-02-09T01:40:05.799Z,85.93
2023-02-09T01:42:34.728Z,85.92
2023-02-09T01:45:20.093Z,85.86
2023-02-09T01:47:51.797Z,85.69
2023-02-09T01:50:19.814Z,85.56
2023-02-09T01:52:49.727Z,85.94
2023-02-09T01:55:21.227Z,85.68
2023-02-09T01:57:54.284Z,85.22
2023-02-09T02:00:23.690Z,85.18
2023-02-09T02:02:55.468Z,85.77
2023-02-09T02:05:25.948Z,85.87
2023-02-09T02:08:01.521Z,85.88
2023-02-09T02:10:29.436Z,86.04
2023-02-09T02:12:58.708Z,85.42
2023-02-09T02:15:30.071Z,85.81
2023-02-09T02:18:16.008Z,85.69
2023-02-09T02:21:24.538Z,85.04
2023-02-09T02:24:23.689Z,86.08
2023-02-09T02:26:56.739Z,85.79
2023-02-09T02:29:47.895Z,85.84
2023-02-09T02:32:38.154Z,85.69
2023-02-09T02:35:11.819Z,85.72
2023-02-09T02:37:52.369Z,85.68
2023-02-09T02:40:29.260Z,85.65
2023-02-09T02:43:03.353Z,85.59
2023-02-09T02:45:40.545Z,86.73
2023-02-09T02:48:25.429Z,85.62
2023-02-09T02:50:57.098Z,85.30
2023-02-09T02:53:29.132Z,85.21
2023-02-09T02:56:02.186Z,85.89
2023-02-09T02:58:31.622Z,85.15
2023-02-09T03:01:02.804Z,86.11
2023-02-09T03:03:34.806Z,85.93
2023-02-09T03:06:06.218Z,85.96
2023-02-09T03:08:47.449Z,86.05
2023-02-09T03:11:15.054Z,85.68
2023-02-09T03:13:56.512Z,85.80
2023-02-09T03:16:33.065Z,85.26
2023-02-09T03:19:15.158Z,84.93
2023-02-09T03:21:49.020Z,85.25
2023-02-09T03:24:28.016Z,84.45
2023-02-09T03:27:01.757Z,84.73
2023-02-09T03:29:31.802Z,84.76
2023-02-09T03:31:59.574Z,84.41
2023-02-09T03:34:28.937Z,84.42
2023-02-09T03:36:58.316Z,83.64
2023-02-09T03:39:25.877Z,83.55
2023-02-09T03:41:53.388Z,83.60
2023-02-09T03:44:30.190Z,83.06
2023-02-09T03:47:00.029Z,83.08
2023-02-09T03:49:31.505Z,83.23
2023-02-09T03:52:00.530Z,83.10
2023-02-09T03:54:28.611Z,83.15
2023-02-09T03:56:56.437Z,82.22
2023-02-09T03:59:25.831Z,82.16
2023-02-09T04:01:54.525Z,82.54
2023-02-09T04:04:22.739Z,82.72
2023-02-09T04:06:51.999Z,82.82
2023-02-09T04:09:19.742Z,83.33
2023-02-09T04:11:47.939Z,83.37
2023-02-09T04:14:15.899Z,83.60
2023-02-09T04:16:43.470Z,83.16
2023-02-09T04:19:11.406Z,83.02
2023-02-09T04:21:39.943Z,83.18
2023-02-09T04:24:09.312Z,82.86
2023-02-09T04:26:37.179Z,83.83
2023-02-09T04:29:04.998Z,83.13
2023-02-09T04:31:32.813Z,83.46
2023-02-09T04:34:00.411Z,83.61
2023-02-09T04:36:28.039Z,83.54
2023-02-09T04:38:55.549Z,83.62
2023-02-09T04:41:24.432Z,82.88
2023-02-09T04:43:52.000Z,82.41
2023-02-09T04:46:20.061Z,82.07
2023-02-09T04:48:47.810Z,82.02
2023-02-09T04:51:15.383Z,81.53
2023-02-09T04:53:43.063Z,82.01
2023-02-09T04:56:15.201Z,82.31
2023-02-09T04:59:01.570Z,81.93
2023-02-09T05:01:30.160Z,81.78
2023-02-09T05:03:57.879Z,82.35
2023-02-09T05:06:25.474Z,82.53
2023-02-09T05:08:53.117Z,82.19
2023-02-09T05:11:20.654Z,82.91
2023-02-09T05:13:49.588Z,83.20
2023-02-09T05:16:18.408Z,82.83
2023-02-09T05:18:46.154Z,82.02
2023-02-09T05:21:14.707Z,82.61
2023-02-09T05:23:42.773Z,81.83
2023-02-09T05:26:10.552Z,82.10
2023-02-09T05:28:38.110Z,81.69
2023-02-09T05:31:07.076Z,81.84
2023-02-09T05:33:34.760Z,81.44
2023-02-09T05:36:08.195Z,81.30
2023-02-09T05:38:35.999Z,80.90
2023-02-09T05:41:05.692Z,81.75
2023-02-09T05:43:33.399Z,81.00
2023-02-09T05:46:01.169Z,81.33
2023-02-09T05:48:30.294Z,80.93
2023-02-09T05:50:57.858Z,81.11
2023-02-09T05:53:25.384Z,80.39
2023-02-09T05:55:52.902Z,80.50
2023-02-09T05:58:20.438Z,80.11
2023-02-09T06:00:48.151Z,79.60
2023-02-09T06:03:15.876Z,79.17
2023-02-09T06:05:46.868Z,78.87
2023-02-09T06:08:14.492Z,78.39
2023-02-09T06:10:42.041Z,78.55
2023-02-09T06:13:09.581Z,77.54
2023-02-09T06:15:37.178Z,77.23
2023-02-09T06:18:05.198Z,77.04
2023-02-09T06:20:32.731Z,76.15
2023-02-09T06:23:01.793Z,75.42
2023-02-09T06:25:29.405Z,75.29
2023-02-09T06:27:57.049Z,74.65
2023-02-09T06:30:24.650Z,74.71
2023-02-09T06:32:52.200Z,74.33
2023-02-09T06:35:19.803Z,74.57
2023-02-09T06:37:47.338Z,74.13
2023-02-09T06:40:16.344Z,73.67
2023-02-09T06:42:46.740Z,73.46
2023-02-09T06:45:16.153Z,73.00
2023-02-09T06:47:45.137Z,73.28
2023-02-09T06:50:14.814Z,72.99
2023-02-09T06:52:42.722Z,72.74
2023-02-09T06:55:10.587Z,72.53
2023-02-09T06:57:39.552Z,72.11
2023-02-09T07:00:09.716Z,72.14
2023-02-09T07:02:37.312Z,72.50
2023-02-09T07:05:05.833Z,71.89
2023-02-09T07:07:33.371Z,71.84
2023-02-09T07:10:01.153Z,71.66
2023-02-09T07:12:28.775Z,71.47
2023-02-09T07:14:57.662Z,71.31
2023-02-09T07:17:25.295Z,71.33
2023-02-09T07:19:52.793Z,71.14
2023-02-09T07:22:20.652Z,71.17
2023-02-09T07:24:48.197Z,70.60
2023-02-09T07:27:16.198Z,71.22
2023-02-09T07:29:43.698Z,71.02
2023-02-09T07:32:12.909Z,71.30
2023-02-09T07:34:40.511Z,70.86
2023-02-09T07:37:08.159Z,70.23
2023-02-09T07:39:36.120Z,70.73
2023-02-09T07:42:03.768Z,71.08
2023-02-09T07:44:52.605Z,70.10
2023-02-09T07:47:21.509Z,70.92
2023-02-09T07:49:49.022Z,70.23
2023-02-09T07:52:16.651Z,70.25
2023-02-09T07:54:44.377Z,70.27
2023-02-09T07:57:13.561Z,69.77
2023-02-09T07:59:41.054Z,70.74
2023-02-09T08:02:17.558Z,70.40
2023-02-09T08:04:46.480Z,69.75
2023-02-09T08:07:14.056Z,70.05
2023-02-09T08:09:44.854Z,69.55
2023-02-09T08:12:12.640Z,69.55
2023-02-09T08:14:47.945Z,69.78
2023-02-09T08:17:24.057Z,70.18
2023-02-09T08:19:58.129Z,69.53
2023-02-09T08:22:29.578Z,69.54
2023-02-09T08:24:58.034Z,69.54
2023-02-09T08:27:25.783Z,70.05
2023-02-09T08:29:53.438Z,69.36
2023-02-09T08:32:21.041Z,69.40
2023-02-09T08:34:48.613Z,69.52
2023-02-09T08:37:17.454Z,69.66
2023-02-09T08:39:45.489Z,68.72
2023-02-09T08:42:13.088Z,68.67
2023-02-09T08:44:40.644Z,68.41
2023-02-09T08:47:08.236Z,67.75
2023-02-09T08:49:36.401Z,68.07
2023-02-09T08:52:04.069Z,67.56
2023-02-09T08:54:33.007Z,67.31
2023-02-09T08:57:00.581Z,67.31
2023-02-09T08:59:28.598Z,67.57
2023-02-09T09:01:56.196Z,66.82
2023-02-09T09:04:23.833Z,67.78
2023-02-09T09:06:51.457Z,66.14
2023-02-09T09:09:19.191Z,66.69
2023-02-09T09:11:48.107Z,66.35
2023-02-09T09:14:15.692Z,66.13
2023-02-09T09:16:43.401Z,65.47
2023-02-09T09:19:10.985Z,65.86
2023-02-09T09:21:38.539Z,65.79
2023-02-09T09:24:06.367Z,66.27
2023-02-09T09:26:34.660Z,65.40
2023-02-09T09:29:04.022Z,65.67
2023-02-09T09:31:33.379Z,65.00
2023-02-09T09:34:01.066Z,65.52
2023-02-09T09:36:28.584Z,65.02
2023-02-09T09:38:56.623Z,65.28
2023-02-09T09:41:29.494Z,65.51
2023-02-09T09:43:57.725Z,64.58
2023-02-09T09:46:34.685Z,64.24
2023-02-09T09:49:02.961Z,64.27
2023-02-09T09:51:38.092Z,64.58
2023-02-09T09:54:08.326Z,65.67
2023-02-09T09:56:35.907Z,65.10
2023-02-09T09:59:03.583Z,64.89
2023-02-09T10:01:34.044Z,64.11
2023-02-09T10:04:07.291Z,63.96
2023-02-09T10:06:34.833Z,70.75
2023-02-09T10:09:05.131Z,64.02
2023-02-09T10:11:37.416Z,63.86
2023-02-09T10:14:04.986Z,62.19
2023-02-09T10:16:37.995Z,62.77
2023-02-09T10:19:17.633Z,63.52
2023-02-09T10:21:45.591Z,63.39
2023-02-09T10:24:16.206Z,64.30
2023-02-09T10:26:43.799Z,63.87
2023-02-09T10:29:24.447Z,63.26
2023-02-09T10:32:00.742Z,62.75
2023-02-09T10:34:33.096Z,62.47
2023-02-09T10:37:18.059Z,62.52
2023-02-09T10:39:47.309Z,63.25
2023-02-09T10:42:20.241Z,62.55
2023-02-09T10:44:51.068Z,62.96
2023-02-09T10:47:31.497Z,63.16
2023-02-09T10:50:14.746Z,62.87
2023-02-09T10:52:54.354Z,62.71
2023-02-09T10:55:26.699Z,62.08
2023-02-09T10:58:06.096Z,62.43
2023-02-09T11:00:38.739Z,62.22
2023-02-09T11:03:16.938Z,62.51
2023-02-09T11:05:46.999Z,63.35
2023-02-09T11:08:20.310Z,63.32
2023-02-09T11:10:57.585Z,62.42
2023-02-09T11:13:26.934Z,62.99
2023-02-09T11:16:15.402Z,62.29
2023-02-09T11:18:49.084Z,62.47
2023-02-09T11:21:22.782Z,62.66
2023-02-09T11:23:59.418Z,62.65
2023-02-09T11:26:38.978Z,62.67
2023-02-09T11:29:14.865Z,63.01
2023-02-09T11:32:01.403Z,62.77
2023-02-09T11:34:47.675Z,62.58
2023-02-09T11:37:28.831Z,63.20
2023-02-09T11:40:04.244Z,63.53
2023-02-09T11:42:47.560Z,63.54
2023-02-09T11:45:20.932Z,63.25
2023-02-09T11:48:04.524Z,63.12
2023-02-09T11:50:40.847Z,63.27
2023-02-09T11:53:21.081Z,63.01
2023-02-09T11:55:53.076Z,63.83
2023-02-09T11:58:42.501Z,63.71
2023-02-09T12:01:20.009Z,63.16
2023-02-09T12:03:57.839Z,63.81
2023-02-09T12:06:30.673Z,62.89
2023-02-09T12:09:09.546Z,63.93
2023-02-09T12:11:47.173Z,63.91
2023-02-09T12:14:36.067Z,64.05
2023-02-09T12:17:13.084Z,64.26
2023-02-09T12:19:45.247Z,63.87
2023-02-09T12:22:46.377Z,63.38
2023-02-09T12:25:22.889Z,64.28
2023-02-09T12:28:17.774Z,63.22
2023-02-09T12:31:05.761Z,63.41
2023-02-09T12:33:36.101Z,63.26
2023-02-09T12:36:06.784Z,64.74
2023-02-09T12:39:07.624Z,64.95
2023-02-09T12:42:11.380Z,64.60
2023-02-09T12:44:54.034Z,64.38
2023-02-09T12:47:45.333Z,65.51
2023-02-09T12:50:27.980Z,65.24
2023-02-09T12:53:32.570Z,65.75
2023-02-09T12:56:04.185Z,65.65
2023-02-09T12:58:39.036Z,65.38
2023-02-09T13:01:07.736Z,65.70
2023-02-09T13:03:43.317Z,65.36
2023-02-09T13:06:32.354Z,65.73
2023-02-09T13:09:04.013Z,66.00
2023-02-09T13:11:45.414Z,65.37
2023-02-09T13:14:17.001Z,65.88
2023-02-09T13:17:25.361Z,66.54
2023-02-09T13:20:15.126Z,66.04
2023-02-09T13:22:54.266Z,66.58
2023-02-09T13:25:29.879Z,66.25
2023-02-09T13:28:09.620Z,66.70
2023-02-09T13:30:37.799Z,66.82
2023-02-09T13:33:21.393Z,67.02
2023-02-09T13:36:06.855Z,66.65
2023-02-09T13:38:36.793Z,66.27
2023-02-09T13:41:08.073Z,66.83
2023-02-09T13:43:40.311Z,67.41
2023-02-09T13:46:08.137Z,66.97
2023-02-09T13:48:38.891Z,67.17
2023-02-09T13:51:16.015Z,66.81
2023-02-09T13:53:56.579Z,66.93
2023-02-09T13:56:24.445Z,66.50
2023-02-09T13:58:54.417Z,66.37
2023-02-09T14:01:28.191Z,65.91
2023-02-09T14:03:59.976Z,66.03
2023-02-09T14:06:35.883Z,66.25
2023-02-09T14:09:07.051Z,66.45
2023-02-09T14:11:43.039Z,66.22
2023-02-09T14:14:20.460Z,67.07
2023-02-09T14:16:53.857Z,66.22
2023-02-09T14:19:27.182Z,66.68
2023-02-09T14:21:54.830Z,67.35
2023-02-09T14:24:23.329Z,66.86
2023-02-09T14:26:54.827Z,66.95
2023-02-09T14:29:27.303Z,66.91
2023-02-09T14:31:57.013Z,66.88
2023-02-09T14:34:31.168Z,67.53
2023-02-09T14:37:01.399Z,67.70
2023-02-09T14:39:31.244Z,67.85
2023-02-09T14:42:02.417Z,67.27
2023-02-09T14:44:32.001Z,67.26
2023-02-09T14:47:01.168Z,67.84
2023-02-09T14:49:29.881Z,68.02
2023-02-09T14:52:03.996Z,67.38
2023-02-09T14:54:36.307Z,68.07
2023-02-09T14:57:04.691Z,68.14
2023-02-09T14:59:33.674Z,68.58
2023-02-09T15:02:01.285Z,68.46
2023-02-09T15:04:28.871Z,68.20
2023-02-09T15:07:03.733Z,68.48
2023-02-09T15:09:35.858Z,68.60
2023-02-09T15:12:07.363Z,69.25
2023-02-09T15:14:47.665Z,68.90
2023-02-09T15:17:18.426Z,68.68
2023-02-09T15:19:46.444Z,68.23
2023-02-09T15:22:16.532Z,68.32
2023-02-09T15:24:45.401Z,69.08
2023-02-09T15:27:24.474Z,69.00
2023-02-09T15:29:56.548Z,69.03
2023-02-09T15:32:26.470Z,68.55
2023-02-09T15:34:54.707Z,69.00
2023-02-09T15:37:24.962Z,69.29
2023-02-09T15:39:56.502Z,69.26
2023-02-09T15:42:41.544Z,69.27
2023-02-09T15:45:36.922Z,69.03
2023-02-09T15:48:05.174Z,69.17
2023-02-09T15:50:34.323Z,69.59
2023-02-09T15:53:03.875Z,69.53
2023-02-09T15:55:32.096Z,69.74
2023-02-09T15:58:00.247Z,70.70
2023-02-09T16:00:31.196Z,71.65
2023-02-09T16:03:01.090Z,72.48
2023-02-09T16:05:31.007Z,72.82
2023-02-09T16:08:00.443Z,72.22
2023-02-09T16:10:30.443Z,72.79
2023-02-09T16:12:58.021Z,72.60
2023-02-09T16:15:27.343Z,72.24
2023-02-09T16:17:56.283Z,72.26
2023-02-09T16:20:26.028Z,72.28
2023-02-09T16:22:55.513Z,72.51
2023-02-09T16:25:26.027Z,71.84
2023-02-09T16:27:55.088Z,71.76
2023-02-09T16:30:25.091Z,72.44
2023-02-09T16:32:52.682Z,71.94
2023-02-09T16:35:23.279Z,72.30
2023-02-09T16:37:53.168Z,71.38
2023-02-09T16:40:27.339Z,71.60
2023-02-09T16:42:55.851Z,72.04
2023-02-09T16:45:24.246Z,72.71
2023-02-09T16:47:59.028Z,71.50
2023-02-09T16:50:32.992Z,71.87
2023-02-09T16:53:17.632Z,72.29
2023-02-09T16:55:49.289Z,73.10
2023-02-09T16:58:18.358Z,73.13
2023-02-09T17:00:46.470Z,72.71
2023-02-09T17:03:17.003Z,72.33
2023-02-09T17:05:48.919Z,72.65
2023-02-09T17:08:19.357Z,73.43
2023-02-09T17:10:48.658Z,73.54
2023-02-09T17:13:17.528Z,73.19
2023-02-09T17:15:47.734Z,73.76
2023-02-09T17:18:19.144Z,73.76
2023-02-09T17:20:52.610Z,74.06
2023-02-09T17:23:24.442Z,73.86
2023-02-09T17:25:55.119Z,73.75
2023-02-09T17:28:23.158Z,73.52
2023-02-09T17:30:51.876Z,73.51
2023-02-09T17:33:23.738Z,73.10
2023-02-09T17:36:23.763Z,74.11
2023-02-09T17:38:41.989Z,73.61
2023-02-09T17:41:15.762Z,73.90
2023-02-09T17:43:43.650Z,73.99
2023-02-09T17:46:15.925Z,74.03
2023-02-09T17:48:43.650Z,74.72
2023-02-09T17:51:19.773Z,74.42
2023-02-09T17:53:48.707Z,75.03
2023-02-09T17:56:16.791Z,74.83
2023-02-09T17:58:45.201Z,75.07
2023-02-09T18:01:25.353Z,74.93
2023-02-09T18:03:54.468Z,74.67
2023-02-09T18:06:28.130Z,75.02
2023-02-09T18:08:55.631Z,75.42
2023-02-09T18:11:40.644Z,76.16
2023-02-09T18:14:08.357Z,75.78
2023-02-09T18:16:37.548Z,76.07
2023-02-09T18:19:05.261Z,76.52
2023-02-09T18:21:34.169Z,76.98
2023-02-09T18:24:01.736Z,76.41
2023-02-09T18:26:29.515Z,77.26
2023-02-09T18:28:57.124Z,77.35
2023-02-09T18:31:24.679Z,77.82
2023-02-09T18:33:52.226Z,78.48
2023-02-09T18:36:19.839Z,78.05
2023-02-09T18:38:50.779Z,78.41
2023-02-09T18:41:18.661Z,78.45
2023-02-09T18:43:46.365Z,78.45
2023-02-09T18:46:15.042Z,78.58
2023-02-09T18:48:42.718Z,78.92
2023-02-09T18:51:10.882Z,78.90
2023-02-09T18:53:39.855Z,79.30
2023-02-09T18:56:08.906Z,80.01
2023-02-09T18:58:37.709Z,79.88
2023-02-09T19:01:10.921Z,80.16
2023-02-09T19:03:38.530Z,79.86
2023-02-09T19:06:06.593Z,80.20
2023-02-09T19:08:34.109Z,80.27
2023-02-09T19:11:01.697Z,80.08
2023-02-09T19:13:33.701Z,80.36
2023-02-09T19:16:01.415Z,80.11
2023-02-09T19:18:29.562Z,80.81
2023-02-09T19:20:57.103Z,80.98
2023-02-09T19:23:24.888Z,80.75
2023-02-09T19:26:01.775Z,81.55
2023-02-09T19:28:30.758Z,81.58
2023-02-09T19:30:58.441Z,81.89
2023-02-09T19:33:26.146Z,82.33
2023-02-09T19:35:58.191Z,82.35
2023-02-09T19:38:26.457Z,82.89
2023-02-09T19:41:09.832Z,83.23
2023-02-09T19:43:39.887Z,83.71
2023-02-09T19:46:10.017Z,84.75
2023-02-09T19:48:38.362Z,85.06
2023-02-09T19:51:06.712Z,85.08
2023-02-09T19:53:34.311Z,85.58
2023-02-09T19:56:01.857Z,86.01
2023-02-09T19:58:29.552Z,85.63
2023-02-09T20:00:58.521Z,86.40
2023-02-09T20:03:26.190Z,87.25
2023-02-09T20:05:53.811Z,87.46
2023-02-09T20:08:21.476Z,88.39
2023-02-09T20:10:49.300Z,88.54
2023-02-09T20:13:17.116Z,88.46
2023-02-09T20:15:45.833Z,88.53
2023-02-09T20:18:17.090Z,88.52
2023-02-09T20:20:45.538Z,88.32
2023-02-09T20:23:15.420Z,88.61
2023-02-09T20:25:43.903Z,89.06
2023-02-09T20:28:13.381Z,89.60
2023-02-09T20:30:42.459Z,89.74
2023-02-09T20:33:10.833Z,89.65
2023-02-09T20:35:41.469Z,90.69
2023-02-09T20:38:10.127Z,91.29
2023-02-09T20:40:38.153Z,91.81
2023-02-09T20:43:23.476Z,92.71
2023-02-09T20:46:09.089Z,92.43
2023-02-09T20:48:36.699Z,92.98
2023-02-09T20:51:05.917Z,93.55
2023-02-09T20:53:33.611Z,94.08
2023-02-09T20:56:01.164Z,94.11
2023-02-09T20:58:28.785Z,94.75
2023-02-09T21:00:56.457Z,95.81
2023-02-09T21:03:24.073Z,95.89
2023-02-09T21:05:51.647Z,96.29
2023-02-09T21:08:21.433Z,96.98
2023-02-09T21:10:55.895Z,97.35
2023-02-09T21:13:23.452Z,98.56
2023-02-09T21:15:51.693Z,98.22
2023-02-09T21:18:21.274Z,98.07
2023-02-09T21:20:49.514Z,98.59
2023-02-09T21:23:17.785Z,98.64
2023-02-09T21:25:46.993Z,99.44
2023-02-09T21:28:15.025Z,99.05
2023-02-09T21:30:43.700Z,98.74
2023-02-09T21:33:11.200Z,98.58
2023-02-09T21:35:41.005Z,98.99
2023-02-09T21:38:08.510Z,99.14
2023-02-09T21:40:36.095Z,98.95
2023-02-09T21:43:05.040Z,98.59
2023-02-09T21:45:32.589Z,98.78
2023-02-09T21:48:01.016Z,98.95
2023-02-09T21:50:28.538Z,99.36
2023-02-09T21:52:56.068Z,99.53
2023-02-09T21:55:23.661Z,99.71
2023-02-09T21:57:51.352Z,99.09
2023-02-09T22:00:20.804Z,99.67
2023-02-09T22:02:52.953Z,99.91
2023-02-09T22:05:20.664Z,99.99
2023-02-09T22:07:49.664Z,100.00
2023-02-09T22:10:18.343Z,100.00
2023-02-09T22:12:46.226Z,100.00
2023-02-09T22:15:13.788Z,100.00
2023-02-09T22:17:42.625Z,99.75
2023-02-09T22:20:11.631Z,99.86
2023-02-09T22:22:39.764Z,100.00
2023-02-09T22:25:08.372Z,100.00
2023-02-09T22:27:35.937Z,100.00
2023-02-09T22:30:03.564Z,100.00
2023-02-09T22:32:31.864Z,100.00
2023-02-09T22:35:00.719Z,100.00
2023-02-09T22:37:28.223Z,100.00
2023-02-09T22:39:55.806Z,100.00
2023-02-09T22:42:23.395Z,100.00
2023-02-09T22:44:50.955Z,100.00
2023-02-09T22:47:18.494Z,100.00
2023-02-09T22:49:46.866Z,100.00
2023-02-09T22:52:15.778Z,100.00
2023-02-09T22:54:43.325Z,100.00
2023-02-09T22:57:10.850Z,100.00
2023-02-09T22:59:38.359Z,100.00
2023-02-09T23:02:06.287Z,100.00
2023-02-09T23:04:33.821Z,100.00
2023-02-09T23:07:01.724Z,100.00
2023-02-09T23:09:30.680Z,100.00
2023-02-09T23:11:58.187Z,100.00
2023-02-09T23:14:25.698Z,100.00
2023-02-09T23:16:53.446Z,100.00
2023-02-09T23:19:21.769Z,100.00
2023-02-09T23:21:51.291Z,100.00
2023-02-09T23:24:21.530Z,100.00
2023-02-09T23:26:50.473Z,100.00
2023-02-09T23:29:19.200Z,100.00
2023-02-09T23:31:47.354Z,100.00
2023-02-09T23:34:17.064Z,100.00
2023-02-09T23:36:45.050Z,100.00
2023-02-09T23:39:16.313Z,100.00
2023-02-09T23:41:44.591Z,100.00
2023-02-09T23:44:13.531Z,100.00
2023-02-09T23:46:41.642Z,100.00
2023-02-09T23:49:09.277Z,100.00
2023-02-09T23:51:37.415Z,100.00
2023-02-09T23:54:06.981Z,100.00
2023-02-09T23:56:37.497Z,100.00
2023-02-09T23:59:06.761Z,100.00
